sensor_id;sensor_type;location;lat;lon;timestamp;pressure;altitude;pressure_sealevel;temperature;humidity
75166;BME280;63747;48.042;10.088;2023-01-01T00:02:20;95624.94;;;8.44;65.36
75166;BME280;63747;48.042;10.088;2023-01-01T00:05:20;95616.56;;;8.49;65.20
75166;BME280;63747;48.042;10.088;2023-01-01T00:08:21;95619.59;;;8.54;65.12
75166;BME280;63747;48.042;10.088;2023-01-01T00:11:22;95617.47;;;8.58;64.86
75166;BME280;63747;48.042;10.088;2023-01-01T00:14:22;95612.56;;;8.63;64.55
75166;BME280;63747;48.042;10.088;2023-01-01T00:17:23;95626.16;;;8.68;64.29
75166;BME280;63747;48.042;10.088;2023-01-01T00:20:24;95627.34;;;8.74;64.16
75166;BME280;63747;48.042;10.088;2023-01-01T00:23:25;95627.28;;;8.83;63.79
75166;BME280;63747;48.042;10.088;2023-01-01T00:26:26;95625.69;;;8.90;63.53
75166;BME280;63747;48.042;10.088;2023-01-01T00:29:27;95629.66;;;8.94;63.34
75166;BME280;63747;48.042;10.088;2023-01-01T00:32:29;95630.75;;;9.02;63.08
75166;BME280;63747;48.042;10.088;2023-01-01T00:35:29;95641.50;;;9.08;63.22
75166;BME280;63747;48.042;10.088;2023-01-01T00:38:31;95640.38;;;9.11;62.81
75166;BME280;63747;48.042;10.088;2023-01-01T00:41:32;95640.06;;;9.14;62.59
75166;BME280;63747;48.042;10.088;2023-01-01T00:44:33;95630.63;;;9.11;62.44
75166;BME280;63747;48.042;10.088;2023-01-01T00:47:33;95635.72;;;9.05;62.52
75166;BME280;63747;48.042;10.088;2023-01-01T00:50:34;95644.09;;;9.00;62.88
75166;BME280;63747;48.042;10.088;2023-01-01T00:53:35;95651.34;;;8.98;62.87
75166;BME280;63747;48.042;10.088;2023-01-01T00:56:36;95641.09;;;8.95;63.07
75166;BME280;63747;48.042;10.088;2023-01-01T00:59:36;95638.69;;;9.02;62.90
75166;BME280;63747;48.042;10.088;2023-01-01T01:02:37;95639.25;;;9.13;62.62
75166;BME280;63747;48.042;10.088;2023-01-01T01:05:38;95637.00;;;9.01;62.60
75166;BME280;63747;48.042;10.088;2023-01-01T01:08:41;95636.47;;;8.79;63.09
75166;BME280;63747;48.042;10.088;2023-01-01T01:11:42;95633.09;;;8.69;63.40
75166;BME280;63747;48.042;10.088;2023-01-01T01:14:43;95627.13;;;8.67;63.44
75166;BME280;63747;48.042;10.088;2023-01-01T01:17:44;95627.22;;;8.75;63.58
75166;BME280;63747;48.042;10.088;2023-01-01T01:20:52;95624.31;;;8.86;63.35
75166;BME280;63747;48.042;10.088;2023-01-01T01:23:53;95631.56;;;9.02;63.44
75166;BME280;63747;48.042;10.088;2023-01-01T01:26:54;95631.47;;;9.12;63.20
75166;BME280;63747;48.042;10.088;2023-01-01T01:29:55;95619.66;;;9.24;63.17
75166;BME280;63747;48.042;10.088;2023-01-01T01:32:55;95616.94;;;9.34;63.07
75166;BME280;63747;48.042;10.088;2023-01-01T01:35:56;95619.16;;;9.46;62.95
75166;BME280;63747;48.042;10.088;2023-01-01T01:38:57;95618.59;;;9.61;62.84
75166;BME280;63747;48.042;10.088;2023-01-01T01:41:58;95619.31;;;9.71;62.85
75166;BME280;63747;48.042;10.088;2023-01-01T01:45:00;95635.41;;;9.77;62.55
75166;BME280;63747;48.042;10.088;2023-01-01T01:48:02;95625.13;;;9.83;62.69
75166;BME280;63747;48.042;10.088;2023-01-01T01:51:03;95633.34;;;9.97;62.21
75166;BME280;63747;48.042;10.088;2023-01-01T01:54:09;95630.88;;;10.04;62.12
75166;BME280;63747;48.042;10.088;2023-01-01T01:57:14;95630.09;;;10.12;62.12
75166;BME280;63747;48.042;10.088;2023-01-01T02:00:15;95627.13;;;10.23;61.68
75166;BME280;63747;48.042;10.088;2023-01-01T02:03:20;95625.16;;;10.25;61.65
75166;BME280;63747;48.042;10.088;2023-01-01T02:06:24;95618.03;;;10.25;61.57
75166;BME280;63747;48.042;10.088;2023-01-01T02:09:26;95618.22;;;10.24;61.59
75166;BME280;63747;48.042;10.088;2023-01-01T02:12:28;95617.69;;;10.28;61.36
75166;BME280;63747;48.042;10.088;2023-01-01T02:15:32;95620.53;;;10.27;61.46
75166;BME280;63747;48.042;10.088;2023-01-01T02:18:56;95618.69;;;10.27;61.60
75166;BME280;63747;48.042;10.088;2023-01-01T02:28:58;95623.81;;;10.21;61.53
75166;BME280;63747;48.042;10.088;2023-01-01T02:35:20;95618.16;;;10.16;61.40
75166;BME280;63747;48.042;10.088;2023-01-01T02:38:38;95615.69;;;10.14;61.66
75166;BME280;63747;48.042;10.088;2023-01-01T02:41:43;95623.97;;;10.11;61.64
75166;BME280;63747;48.042;10.088;2023-01-01T02:44:48;95622.59;;;10.07;61.69
75166;BME280;63747;48.042;10.088;2023-01-01T02:47:50;95624.59;;;10.05;61.50
75166;BME280;63747;48.042;10.088;2023-01-01T02:50:50;95632.72;;;10.03;61.51
75166;BME280;63747;48.042;10.088;2023-01-01T02:54:09;95638.00;;;10.03;61.66
75166;BME280;63747;48.042;10.088;2023-01-01T02:57:22;95636.66;;;9.99;61.58
75166;BME280;63747;48.042;10.088;2023-01-01T03:00:27;95634.00;;;9.99;61.66
75166;BME280;63747;48.042;10.088;2023-01-01T03:03:38;95637.81;;;9.97;61.60
75166;BME280;63747;48.042;10.088;2023-01-01T03:10:11;95628.53;;;10.01;61.80
75166;BME280;63747;48.042;10.088;2023-01-01T03:19:33;95611.22;;;10.15;61.52
75166;BME280;63747;48.042;10.088;2023-01-01T03:22:38;95613.84;;;10.15;61.55
75166;BME280;63747;48.042;10.088;2023-01-01T03:25:52;95615.00;;;10.12;61.67
75166;BME280;63747;48.042;10.088;2023-01-01T03:28:56;95619.16;;;10.15;61.62
75166;BME280;63747;48.042;10.088;2023-01-01T03:31:59;95626.28;;;10.14;61.73
75166;BME280;63747;48.042;10.088;2023-01-01T03:35:01;95634.75;;;10.18;61.61
75166;BME280;63747;48.042;10.088;2023-01-01T03:38:06;95643.34;;;10.20;61.72
75166;BME280;63747;48.042;10.088;2023-01-01T03:41:21;95646.66;;;10.22;61.86
75166;BME280;63747;48.042;10.088;2023-01-01T03:44:33;95642.19;;;10.22;61.82
75166;BME280;63747;48.042;10.088;2023-01-01T03:47:34;95640.53;;;10.21;62.07
75166;BME280;63747;48.042;10.088;2023-01-01T03:50:48;95658.91;;;10.23;61.92
75166;BME280;63747;48.042;10.088;2023-01-01T03:53:53;95662.09;;;10.26;61.96
75166;BME280;63747;48.042;10.088;2023-01-01T03:57:27;95671.03;;;10.25;61.93
75166;BME280;63747;48.042;10.088;2023-01-01T04:00:33;95660.91;;;10.21;62.19
75166;BME280;63747;48.042;10.088;2023-01-01T04:03:36;95660.91;;;10.21;62.23
75166;BME280;63747;48.042;10.088;2023-01-01T04:06:38;95655.31;;;10.24;62.37
75166;BME280;63747;48.042;10.088;2023-01-01T04:09:39;95654.44;;;10.23;62.38
75166;BME280;63747;48.042;10.088;2023-01-01T04:12:48;95644.19;;;10.20;62.51
75166;BME280;63747;48.042;10.088;2023-01-01T04:15:49;95657.78;;;10.25;62.64
75166;BME280;63747;48.042;10.088;2023-01-01T04:18:50;95654.63;;;10.30;62.59
75166;BME280;63747;48.042;10.088;2023-01-01T04:21:51;95650.19;;;10.30;62.63
75166;BME280;63747;48.042;10.088;2023-01-01T04:24:52;95641.25;;;10.31;62.43
75166;BME280;63747;48.042;10.088;2023-01-01T04:27:53;95649.19;;;10.31;62.50
75166;BME280;63747;48.042;10.088;2023-01-01T04:30:53;95645.38;;;10.26;62.43
75166;BME280;63747;48.042;10.088;2023-01-01T04:33:54;95656.78;;;10.26;62.53
75166;BME280;63747;48.042;10.088;2023-01-01T04:36:55;95650.00;;;10.24;62.67
75166;BME280;63747;48.042;10.088;2023-01-01T04:39:55;95658.41;;;10.19;62.65
75166;BME280;63747;48.042;10.088;2023-01-01T04:42:56;95648.63;;;10.12;62.82
75166;BME280;63747;48.042;10.088;2023-01-01T04:46:01;95654.38;;;10.07;62.73
75166;BME280;63747;48.042;10.088;2023-01-01T04:49:03;95655.69;;;10.03;62.75
75166;BME280;63747;48.042;10.088;2023-01-01T04:52:04;95654.19;;;10.00;62.97
75166;BME280;63747;48.042;10.088;2023-01-01T04:55:05;95648.25;;;9.98;62.93
75166;BME280;63747;48.042;10.088;2023-01-01T04:58:06;95664.44;;;9.95;63.09
75166;BME280;63747;48.042;10.088;2023-01-01T05:01:07;95656.81;;;9.92;63.25
75166;BME280;63747;48.042;10.088;2023-01-01T05:04:14;95659.47;;;9.92;63.19
75166;BME280;63747;48.042;10.088;2023-01-01T05:07:15;95665.06;;;9.89;63.28
75166;BME280;63747;48.042;10.088;2023-01-01T05:10:17;95667.69;;;9.89;63.30
75166;BME280;63747;48.042;10.088;2023-01-01T05:13:17;95667.69;;;9.89;63.23
75166;BME280;63747;48.042;10.088;2023-01-01T05:16:22;95668.22;;;9.93;63.24
75166;BME280;63747;48.042;10.088;2023-01-01T05:19:23;95673.19;;;9.96;63.08
75166;BME280;63747;48.042;10.088;2023-01-01T05:22:23;95663.47;;;9.96;63.26
75166;BME280;63747;48.042;10.088;2023-01-01T05:25:24;95684.50;;;9.98;63.14
75166;BME280;63747;48.042;10.088;2023-01-01T05:28:25;95693.25;;;9.98;62.96
75166;BME280;63747;48.042;10.088;2023-01-01T05:31:32;95703.84;;;9.98;63.00
75166;BME280;63747;48.042;10.088;2023-01-01T05:34:33;95699.69;;;9.96;62.93
75166;BME280;63747;48.042;10.088;2023-01-01T05:37:34;95697.03;;;9.96;63.00
75166;BME280;63747;48.042;10.088;2023-01-01T05:40:37;95706.50;;;9.98;63.08
75166;BME280;63747;48.042;10.088;2023-01-01T05:43:39;95703.19;;;9.96;63.09
75166;BME280;63747;48.042;10.088;2023-01-01T05:46:40;95695.91;;;9.98;63.07
75166;BME280;63747;48.042;10.088;2023-01-01T05:49:40;95693.91;;;10.00;62.92
75166;BME280;63747;48.042;10.088;2023-01-01T05:52:41;95712.00;;;10.05;62.82
75166;BME280;63747;48.042;10.088;2023-01-01T05:55:42;95714.47;;;10.06;62.96
75166;BME280;63747;48.042;10.088;2023-01-01T05:58:43;95723.72;;;10.02;62.68
75166;BME280;63747;48.042;10.088;2023-01-01T06:01:44;95719.91;;;9.97;62.83
75166;BME280;63747;48.042;10.088;2023-01-01T06:04:45;95718.22;;;9.96;62.86
75166;BME280;63747;48.042;10.088;2023-01-01T06:07:46;95717.56;;;9.94;62.88
75166;BME280;63747;48.042;10.088;2023-01-01T06:10:46;95724.00;;;9.91;62.83
75166;BME280;63747;48.042;10.088;2023-01-01T06:13:50;95725.81;;;9.91;62.63
75166;BME280;63747;48.042;10.088;2023-01-01T06:16:51;95722.19;;;9.92;62.59
75166;BME280;63747;48.042;10.088;2023-01-01T06:19:51;95720.03;;;9.95;62.52
75166;BME280;63747;48.042;10.088;2023-01-01T06:22:52;95712.09;;;9.95;62.77
75166;BME280;63747;48.042;10.088;2023-01-01T06:25:53;95719.00;;;9.88;62.40
75166;BME280;63747;48.042;10.088;2023-01-01T06:28:54;95724.81;;;9.66;62.78
75166;BME280;63747;48.042;10.088;2023-01-01T06:31:55;95727.66;;;9.46;62.75
75166;BME280;63747;48.042;10.088;2023-01-01T06:34:56;95739.78;;;9.31;63.27
75166;BME280;63747;48.042;10.088;2023-01-01T06:37:59;95738.63;;;9.16;63.37
75166;BME280;63747;48.042;10.088;2023-01-01T06:41:03;95735.53;;;9.03;63.69
75166;BME280;63747;48.042;10.088;2023-01-01T06:44:04;95751.59;;;8.91;63.79
75166;BME280;63747;48.042;10.088;2023-01-01T06:47:05;95752.19;;;8.85;63.93
75166;BME280;63747;48.042;10.088;2023-01-01T06:50:06;95756.56;;;8.77;64.00
75166;BME280;63747;48.042;10.088;2023-01-01T06:53:07;95754.97;;;8.66;64.27
75166;BME280;63747;48.042;10.088;2023-01-01T06:56:08;95765.16;;;8.61;64.42
75166;BME280;63747;48.042;10.088;2023-01-01T06:59:09;95769.06;;;8.57;64.54
75166;BME280;63747;48.042;10.088;2023-01-01T07:02:10;95765.03;;;8.53;64.40
75166;BME280;63747;48.042;10.088;2023-01-01T07:05:11;95763.69;;;8.49;64.48
75166;BME280;63747;48.042;10.088;2023-01-01T07:08:11;95759.97;;;8.41;64.67
75166;BME280;63747;48.042;10.088;2023-01-01T07:11:12;95764.44;;;8.41;64.74
75166;BME280;63747;48.042;10.088;2023-01-01T07:14:13;95756.94;;;8.36;64.97
75166;BME280;63747;48.042;10.088;2023-01-01T07:17:13;95758.75;;;8.36;65.02
75166;BME280;63747;48.042;10.088;2023-01-01T07:20:14;95764.28;;;8.33;65.15
75166;BME280;63747;48.042;10.088;2023-01-01T07:23:15;95768.91;;;8.31;65.14
75166;BME280;63747;48.042;10.088;2023-01-01T07:26:16;95766.41;;;8.29;65.20
75166;BME280;63747;48.042;10.088;2023-01-01T07:29:16;95769.72;;;8.31;65.23
75166;BME280;63747;48.042;10.088;2023-01-01T07:32:17;95772.53;;;8.30;65.28
75166;BME280;63747;48.042;10.088;2023-01-01T07:35:18;95780.88;;;8.25;65.07
75166;BME280;63747;48.042;10.088;2023-01-01T07:38:18;95780.72;;;8.27;65.25
75166;BME280;63747;48.042;10.088;2023-01-01T07:41:20;95783.50;;;8.25;65.32
75166;BME280;63747;48.042;10.088;2023-01-01T07:44:21;95787.81;;;8.26;65.30
75166;BME280;63747;48.042;10.088;2023-01-01T07:47:24;95791.44;;;8.25;65.31
75166;BME280;63747;48.042;10.088;2023-01-01T07:50:27;95799.78;;;8.30;65.35
75166;BME280;63747;48.042;10.088;2023-01-01T07:53:28;95802.09;;;8.33;65.32
75166;BME280;63747;48.042;10.088;2023-01-01T07:56:30;95805.47;;;8.35;65.22
75166;BME280;63747;48.042;10.088;2023-01-01T07:59:31;95807.13;;;8.36;65.20
75166;BME280;63747;48.042;10.088;2023-01-01T08:02:32;95817.25;;;8.41;65.17
75166;BME280;63747;48.042;10.088;2023-01-01T08:05:32;95820.00;;;8.49;65.12
75166;BME280;63747;48.042;10.088;2023-01-01T08:08:35;95819.28;;;8.57;65.13
75166;BME280;63747;48.042;10.088;2023-01-01T08:11:36;95815.16;;;8.72;64.58
75166;BME280;63747;48.042;10.088;2023-01-01T08:14:37;95805.47;;;8.90;64.13
75166;BME280;63747;48.042;10.088;2023-01-01T08:17:38;95820.66;;;9.06;64.03
75166;BME280;63747;48.042;10.088;2023-01-01T08:20:39;95814.88;;;9.20;63.83
75166;BME280;63747;48.042;10.088;2023-01-01T08:23:39;95817.56;;;9.38;63.70
75166;BME280;63747;48.042;10.088;2023-01-01T08:26:40;95825.28;;;9.49;63.59
75166;BME280;63747;48.042;10.088;2023-01-01T08:29:41;95822.38;;;9.61;63.18
75166;BME280;63747;48.042;10.088;2023-01-01T08:32:42;95828.28;;;9.72;62.88
75166;BME280;63747;48.042;10.088;2023-01-01T08:35:43;95827.50;;;9.80;62.65
75166;BME280;63747;48.042;10.088;2023-01-01T08:38:44;95826.91;;;9.86;62.60
75166;BME280;63747;48.042;10.088;2023-01-01T08:41:45;95830.31;;;9.96;62.63
75166;BME280;63747;48.042;10.088;2023-01-01T08:44:45;95823.91;;;10.07;62.38
75166;BME280;63747;48.042;10.088;2023-01-01T08:47:48;95822.16;;;10.16;61.91
75166;BME280;63747;48.042;10.088;2023-01-01T08:50:57;95823.88;;;10.25;61.85
75166;BME280;63747;48.042;10.088;2023-01-01T08:54:04;95818.81;;;10.40;61.47
75166;BME280;63747;48.042;10.088;2023-01-01T08:57:06;95820.56;;;10.57;61.26
75166;BME280;63747;48.042;10.088;2023-01-01T09:00:07;95813.03;;;10.70;60.97
75166;BME280;63747;48.042;10.088;2023-01-01T09:03:08;95815.75;;;10.86;60.78
75166;BME280;63747;48.042;10.088;2023-01-01T09:06:09;95801.22;;;10.99;60.24
75166;BME280;63747;48.042;10.088;2023-01-01T09:09:10;95806.72;;;11.13;60.00
75166;BME280;63747;48.042;10.088;2023-01-01T09:12:14;95803.63;;;11.26;59.82
75166;BME280;63747;48.042;10.088;2023-01-01T09:15:18;95806.44;;;11.41;59.56
75166;BME280;63747;48.042;10.088;2023-01-01T09:18:19;95812.94;;;11.55;59.18
75166;BME280;63747;48.042;10.088;2023-01-01T09:21:19;95809.81;;;11.67;58.81
75166;BME280;63747;48.042;10.088;2023-01-01T09:24:32;95817.94;;;11.82;58.47
75166;BME280;63747;48.042;10.088;2023-01-01T09:27:33;95814.63;;;11.96;58.13
75166;BME280;63747;48.042;10.088;2023-01-01T09:30:34;95819.28;;;12.11;57.56
75166;BME280;63747;48.042;10.088;2023-01-01T09:33:35;95824.41;;;12.29;57.44
75166;BME280;63747;48.042;10.088;2023-01-01T09:36:38;95827.56;;;12.40;57.24
75166;BME280;63747;48.042;10.088;2023-01-01T09:39:39;95816.38;;;12.53;57.02
75166;BME280;63747;48.042;10.088;2023-01-01T09:42:48;95816.66;;;12.66;57.05
75166;BME280;63747;48.042;10.088;2023-01-01T09:46:02;95830.59;;;12.76;56.73
75166;BME280;63747;48.042;10.088;2023-01-01T09:49:11;95819.09;;;12.84;56.86
75166;BME280;63747;48.042;10.088;2023-01-01T09:52:14;95826.22;;;12.92;56.47
75166;BME280;63747;48.042;10.088;2023-01-01T09:58:38;95820.69;;;13.01;56.34
75166;BME280;63747;48.042;10.088;2023-01-01T10:05:18;95808.50;;;13.07;55.79
75166;BME280;63747;48.042;10.088;2023-01-01T10:14:42;95804.94;;;13.31;54.81
75166;BME280;63747;48.042;10.088;2023-01-01T10:17:49;95798.19;;;13.43;54.51
75166;BME280;63747;48.042;10.088;2023-01-01T10:21:00;95794.84;;;13.49;54.50
75166;BME280;63747;48.042;10.088;2023-01-01T10:24:32;95798.97;;;13.52;54.41
75166;BME280;63747;48.042;10.088;2023-01-01T10:27:43;95800.44;;;13.54;54.40
75166;BME280;63747;48.042;10.088;2023-01-01T10:30:45;95794.22;;;13.62;54.61
75166;BME280;63747;48.042;10.088;2023-01-01T10:33:46;95794.19;;;13.70;54.76
75166;BME280;63747;48.042;10.088;2023-01-01T10:36:54;95799.63;;;13.77;55.08
75166;BME280;63747;48.042;10.088;2023-01-01T10:39:55;95786.47;;;13.75;54.05
75166;BME280;63747;48.042;10.088;2023-01-01T10:42:58;95784.47;;;13.77;53.71
75166;BME280;63747;48.042;10.088;2023-01-01T10:46:01;95787.06;;;13.85;53.28
75166;BME280;63747;48.042;10.088;2023-01-01T10:52:13;95780.47;;;13.96;53.00
75166;BME280;63747;48.042;10.088;2023-01-01T10:55:19;95777.66;;;14.12;52.44
75166;BME280;63747;48.042;10.088;2023-01-01T10:58:47;95777.13;;;14.17;52.51
75166;BME280;63747;48.042;10.088;2023-01-01T11:02:13;95776.09;;;14.18;52.37
75166;BME280;63747;48.042;10.088;2023-01-01T11:05:20;95758.94;;;14.21;52.75
75166;BME280;63747;48.042;10.088;2023-01-01T11:08:26;95753.59;;;14.21;52.42
75166;BME280;63747;48.042;10.088;2023-01-01T11:11:35;95760.59;;;14.22;52.84
75166;BME280;63747;48.042;10.088;2023-01-01T11:14:48;95753.06;;;14.25;52.45
75166;BME280;63747;48.042;10.088;2023-01-01T11:17:49;95750.03;;;14.28;52.27
75166;BME280;63747;48.042;10.088;2023-01-01T11:20:52;95744.50;;;14.30;51.86
75166;BME280;63747;48.042;10.088;2023-01-01T11:24:17;95739.91;;;14.24;51.95
75166;BME280;63747;48.042;10.088;2023-01-01T11:27:23;95732.09;;;14.22;52.40
75166;BME280;63747;48.042;10.088;2023-01-01T11:30:28;95731.09;;;14.23;52.05
75166;BME280;63747;48.042;10.088;2023-01-01T11:33:30;95732.19;;;14.29;52.41
75166;BME280;63747;48.042;10.088;2023-01-01T11:36:33;95725.38;;;14.41;52.13
75166;BME280;63747;48.042;10.088;2023-01-01T11:39:35;95715.06;;;14.53;51.50
75166;BME280;63747;48.042;10.088;2023-01-01T11:42:44;95722.22;;;14.67;50.76
75166;BME280;63747;48.042;10.088;2023-01-01T11:45:46;95728.84;;;14.86;50.63
75166;BME280;63747;48.042;10.088;2023-01-01T11:48:49;95723.38;;;14.94;49.67
75166;BME280;63747;48.042;10.088;2023-01-01T11:51:50;95725.00;;;15.10;50.25
75166;BME280;63747;48.042;10.088;2023-01-01T11:54:51;95725.44;;;15.28;50.54
75166;BME280;63747;48.042;10.088;2023-01-01T12:01:28;95711.19;;;15.42;49.51
75166;BME280;63747;48.042;10.088;2023-01-01T12:04:36;95702.47;;;15.34;50.26
75166;BME280;63747;48.042;10.088;2023-01-01T12:07:41;95710.09;;;15.37;49.96
75166;BME280;63747;48.042;10.088;2023-01-01T12:10:51;95705.16;;;15.34;50.16
75166;BME280;63747;48.042;10.088;2023-01-01T12:14:00;95694.41;;;15.48;49.63
75166;BME280;63747;48.042;10.088;2023-01-01T12:17:59;95694.41;;;15.48;49.65
75166;BME280;63747;48.042;10.088;2023-01-01T12:21:01;95699.09;;;15.68;49.18
75166;BME280;63747;48.042;10.088;2023-01-01T12:24:04;95691.38;;;15.80;49.18
75166;BME280;63747;48.042;10.088;2023-01-01T12:27:16;95684.66;;;15.90;48.51
75166;BME280;63747;48.042;10.088;2023-01-01T12:30:20;95682.22;;;15.95;48.58
75166;BME280;63747;48.042;10.088;2023-01-01T12:33:36;95683.38;;;16.14;48.72
75166;BME280;63747;48.042;10.088;2023-01-01T12:43:26;95683.63;;;16.19;48.88
75166;BME280;63747;48.042;10.088;2023-01-01T12:49:58;95675.69;;;16.04;47.92
75166;BME280;63747;48.042;10.088;2023-01-01T12:53:43;95682.91;;;16.04;48.24
75166;BME280;63747;48.042;10.088;2023-01-01T12:57:02;95671.97;;;16.27;48.28
75166;BME280;63747;48.042;10.088;2023-01-01T13:00:15;95667.13;;;16.44;47.52
75166;BME280;63747;48.042;10.088;2023-01-01T13:06:56;95654.84;;;16.63;48.07
75166;BME280;63747;48.042;10.088;2023-01-01T13:10:25;95647.25;;;16.73;47.33
75166;BME280;63747;48.042;10.088;2023-01-01T13:13:27;95651.59;;;16.80;47.10
75166;BME280;63747;48.042;10.088;2023-01-01T13:16:33;95654.94;;;16.89;47.00
75166;BME280;63747;48.042;10.088;2023-01-01T13:19:35;95659.66;;;16.87;46.64
75166;BME280;63747;48.042;10.088;2023-01-01T13:22:38;95650.19;;;16.84;46.82
75166;BME280;63747;48.042;10.088;2023-01-01T13:25:42;95652.03;;;16.84;46.79
75166;BME280;63747;48.042;10.088;2023-01-01T13:28:43;95658.66;;;16.88;46.16
75166;BME280;63747;48.042;10.088;2023-01-01T13:32:09;95662.34;;;16.87;45.77
75166;BME280;63747;48.042;10.088;2023-01-01T13:35:15;95647.94;;;16.88;46.34
75166;BME280;63747;48.042;10.088;2023-01-01T13:41:48;95638.69;;;17.04;45.83
75166;BME280;63747;48.042;10.088;2023-01-01T13:44:48;95640.38;;;17.11;46.50
75166;BME280;63747;48.042;10.088;2023-01-01T14:01:38;95638.91;;;17.02;45.57
75166;BME280;63747;48.042;10.088;2023-01-01T14:04:45;95644.25;;;17.02;46.36
75166;BME280;63747;48.042;10.088;2023-01-01T14:07:50;95648.16;;;17.06;45.95
75166;BME280;63747;48.042;10.088;2023-01-01T14:10:51;95652.34;;;17.09;46.19
75166;BME280;63747;48.042;10.088;2023-01-01T14:13:52;95656.81;;;16.95;47.54
75166;BME280;63747;48.042;10.088;2023-01-01T14:16:57;95655.31;;;16.86;48.86
75166;BME280;63747;48.042;10.088;2023-01-01T14:19:59;95658.19;;;16.78;49.44
75166;BME280;63747;48.042;10.088;2023-01-01T14:23:08;95657.31;;;16.64;50.19
75166;BME280;63747;48.042;10.088;2023-01-01T14:26:12;95650.19;;;16.37;50.73
75166;BME280;63747;48.042;10.088;2023-01-01T14:29:18;95655.56;;;16.09;51.70
75166;BME280;63747;48.042;10.088;2023-01-01T14:32:23;95665.69;;;15.85;52.20
75166;BME280;63747;48.042;10.088;2023-01-01T14:35:24;95669.94;;;15.73;52.73
75166;BME280;63747;48.042;10.088;2023-01-01T14:38:28;95663.84;;;15.58;52.91
75166;BME280;63747;48.042;10.088;2023-01-01T14:44:34;95660.16;;;15.37;52.33
75166;BME280;63747;48.042;10.088;2023-01-01T14:47:36;95669.06;;;15.23;51.73
75166;BME280;63747;48.042;10.088;2023-01-01T14:50:37;95668.56;;;15.13;51.88
75166;BME280;63747;48.042;10.088;2023-01-01T14:53:38;95662.06;;;15.01;51.79
75166;BME280;63747;48.042;10.088;2023-01-01T14:56:40;95659.03;;;14.89;51.86
75166;BME280;63747;48.042;10.088;2023-01-01T14:59:46;95660.38;;;14.78;51.87
75166;BME280;63747;48.042;10.088;2023-01-01T15:02:47;95660.22;;;14.65;52.17
75166;BME280;63747;48.042;10.088;2023-01-01T15:06:00;95650.59;;;14.49;52.16
75166;BME280;63747;48.042;10.088;2023-01-01T15:09:01;95660.34;;;14.42;52.24
75166;BME280;63747;48.042;10.088;2023-01-01T15:12:02;95647.84;;;14.28;52.93
75166;BME280;63747;48.042;10.088;2023-01-01T15:15:04;95652.63;;;14.18;53.02
75166;BME280;63747;48.042;10.088;2023-01-01T15:18:15;95659.97;;;14.01;53.23
75166;BME280;63747;48.042;10.088;2023-01-01T15:24:30;95653.50;;;13.66;54.02
75166;BME280;63747;48.042;10.088;2023-01-01T15:27:34;95652.09;;;13.55;54.15
75166;BME280;63747;48.042;10.088;2023-01-01T15:30:37;95659.53;;;13.45;54.06
75166;BME280;63747;48.042;10.088;2023-01-01T15:33:38;95652.97;;;13.32;54.28
75166;BME280;63747;48.042;10.088;2023-01-01T15:36:38;95659.72;;;13.20;54.71
75166;BME280;63747;48.042;10.088;2023-01-01T15:39:51;95650.97;;;13.12;54.72
75166;BME280;63747;48.042;10.088;2023-01-01T15:46:10;95656.75;;;12.92;55.37
75166;BME280;63747;48.042;10.088;2023-01-01T15:49:25;95653.66;;;12.80;55.39
75166;BME280;63747;48.042;10.088;2023-01-01T15:52:27;95651.22;;;12.71;55.55
75166;BME280;63747;48.042;10.088;2023-01-01T15:55:30;95653.31;;;12.61;55.73
75166;BME280;63747;48.042;10.088;2023-01-01T15:58:35;95651.66;;;12.51;55.87
75166;BME280;63747;48.042;10.088;2023-01-01T16:01:38;95651.22;;;12.40;55.98
75166;BME280;63747;48.042;10.088;2023-01-01T16:04:44;95652.91;;;12.33;56.26
75166;BME280;63747;48.042;10.088;2023-01-01T16:07:46;95655.97;;;12.21;56.35
75166;BME280;63747;48.042;10.088;2023-01-01T16:10:47;95655.66;;;12.16;56.70
75166;BME280;63747;48.042;10.088;2023-01-01T16:13:49;95662.16;;;12.06;56.74
75166;BME280;63747;48.042;10.088;2023-01-01T16:16:53;95653.03;;;11.92;56.95
75166;BME280;63747;48.042;10.088;2023-01-01T16:19:56;95651.41;;;11.83;57.26
75166;BME280;63747;48.042;10.088;2023-01-01T16:22:56;95652.28;;;11.75;57.29
75166;BME280;63747;48.042;10.088;2023-01-01T16:25:57;95653.97;;;11.60;57.54
75166;BME280;63747;48.042;10.088;2023-01-01T16:28:58;95655.13;;;11.49;57.55
75166;BME280;63747;48.042;10.088;2023-01-01T16:31:59;95651.50;;;11.42;57.78
75166;BME280;63747;48.042;10.088;2023-01-01T16:34:59;95645.03;;;11.36;58.09
75166;BME280;63747;48.042;10.088;2023-01-01T16:38:00;95650.69;;;11.25;58.11
75166;BME280;63747;48.042;10.088;2023-01-01T16:41:02;95652.50;;;11.16;58.20
75166;BME280;63747;48.042;10.088;2023-01-01T16:44:02;95655.81;;;11.02;58.27
75166;BME280;63747;48.042;10.088;2023-01-01T16:47:03;95656.47;;;10.96;58.65
75166;BME280;63747;48.042;10.088;2023-01-01T16:50:04;95652.47;;;10.84;58.52
75166;BME280;63747;48.042;10.088;2023-01-01T16:53:05;95651.97;;;10.72;58.84
75166;BME280;63747;48.042;10.088;2023-01-01T16:56:06;95647.47;;;10.65;59.13
75166;BME280;63747;48.042;10.088;2023-01-01T16:59:07;95647.28;;;10.58;59.17
75166;BME280;63747;48.042;10.088;2023-01-01T17:02:09;95646.75;;;10.46;59.55
75166;BME280;63747;48.042;10.088;2023-01-01T17:05:10;95645.91;;;10.38;59.56
75166;BME280;63747;48.042;10.088;2023-01-01T17:08:11;95647.38;;;10.32;59.75
75166;BME280;63747;48.042;10.088;2023-01-01T17:11:16;95648.00;;;10.26;59.83
75166;BME280;63747;48.042;10.088;2023-01-01T17:14:17;95644.00;;;10.14;60.13
75166;BME280;63747;48.042;10.088;2023-01-01T17:17:17;95640.50;;;10.05;60.12
75166;BME280;63747;48.042;10.088;2023-01-01T17:20:18;95643.44;;;10.02;60.20
75166;BME280;63747;48.042;10.088;2023-01-01T17:23:19;95646.22;;;9.92;60.41
75166;BME280;63747;48.042;10.088;2023-01-01T17:26:21;95645.16;;;9.77;60.74